createdAt,value
2022-09-09T00:00:24.121Z,90
2022-09-09T00:01:41.226Z,90
2022-09-09T00:02:58.330Z,90
2022-09-09T00:04:15.434Z,89.8
2022-09-09T00:05:32.538Z,90
2022-09-09T00:06:49.642Z,90.1
2022-09-09T00:08:06.746Z,90.1
2022-09-09T00:09:23.850Z,90.2
2022-09-09T00:10:39.970Z,90.4
2022-09-09T00:11:57.075Z,90.2
2022-09-09T00:13:14.179Z,90.3
2022-09-09T00:14:31.283Z,90.3
2022-09-09T00:15:48.387Z,90.3
2022-09-09T00:17:05.491Z,90.3
2022-09-09T00:18:22.595Z,90.4
2022-09-09T00:19:39.699Z,90.6
2022-09-09T00:20:56.803Z,90.6
2022-09-09T00:22:13.907Z,90.9
2022-09-09T00:23:31.012Z,91
2022-09-09T00:24:48.116Z,91.2
2022-09-09T00:26:05.220Z,91.2
2022-09-09T00:27:21.340Z,91
2022-09-09T00:28:38.444Z,91
2022-09-09T00:29:55.548Z,90.9
2022-09-09T00:31:12.652Z,90.9
2022-09-09T00:32:29.757Z,90.7
2022-09-09T00:33:46.861Z,90.8
2022-09-09T00:35:03.965Z,90.9
2022-09-09T00:36:21.070Z,91
2022-09-09T00:37:38.174Z,91.1
2022-09-09T00:38:55.278Z,91.2
2022-09-09T00:40:12.382Z,91.1
2022-09-09T00:41:29.486Z,90.9
2022-09-09T00:42:46.590Z,90.8
2022-09-09T00:44:02.711Z,90.5
2022-09-09T00:45:19.815Z,90.1
2022-09-09T00:46:36.919Z,89.8
2022-09-09T00:47:54.023Z,89.8
2022-09-09T00:49:11.128Z,89.8
2022-09-09T00:50:28.232Z,89.8
2022-09-09T00:51:45.336Z,89.8
2022-09-09T00:53:02.440Z,89.8
2022-09-09T00:54:19.544Z,89.8
2022-09-09T00:55:36.648Z,89.7
2022-09-09T00:56:53.753Z,89.8
2022-09-09T00:58:10.857Z,89.5
2022-09-09T00:59:27.961Z,90
2022-09-09T01:00:44.081Z,90.1
2022-09-09T01:02:01.185Z,90.1
2022-09-09T01:03:18.289Z,90
2022-09-09T01:04:35.394Z,90
2022-09-09T01:05:52.498Z,89.8
2022-09-09T01:07:09.603Z,89.8
2022-09-09T01:08:26.707Z,89.8
2022-09-09T01:09:43.809Z,89.7
2022-09-09T01:11:00.913Z,89.8
2022-09-09T01:12:18.017Z,89.8
2022-09-09T01:13:35.122Z,89.8
2022-09-09T01:14:52.226Z,89.7
2022-09-09T01:16:09.330Z,89.8
2022-09-09T01:17:25.450Z,89.8
2022-09-09T01:18:42.554Z,89.6
2022-09-09T01:19:59.658Z,89.5
2022-09-09T01:21:16.762Z,89.5
2022-09-09T01:23:50.972Z,89.4
2022-09-09T01:25:08.076Z,89.6
2022-09-09T01:26:25.180Z,89.5
2022-09-09T01:27:42.284Z,89.8
2022-09-09T01:28:59.388Z,89.8
2022-09-09T01:30:16.492Z,89.8
2022-09-09T01:31:33.596Z,89.8
2022-09-09T01:32:50.700Z,89.8
2022-09-09T01:34:06.821Z,89.6
2022-09-09T01:35:23.925Z,89.3
2022-09-09T01:36:41.029Z,89.7
2022-09-09T01:37:58.133Z,89.7
2022-09-09T01:39:15.237Z,89.6
2022-09-09T01:40:32.341Z,89.5
2022-09-09T01:41:49.446Z,89.7
2022-09-09T01:43:06.550Z,89.7
2022-09-09T01:44:23.654Z,89.8
2022-09-09T01:45:40.758Z,90
2022-09-09T01:46:57.862Z,89.9
2022-09-09T01:48:14.967Z,89.8
2022-09-09T01:49:32.069Z,89.8
2022-09-09T01:50:49.173Z,89.7
2022-09-09T01:52:05.294Z,89.6
2022-09-09T01:53:22.398Z,89.5
2022-09-09T01:54:39.502Z,89.8
2022-09-09T01:55:55.623Z,89.8
2022-09-09T01:57:12.727Z,89.4
2022-09-09T01:58:29.831Z,89.6
2022-09-09T01:59:46.935Z,89.6
2022-09-09T02:01:04.039Z,89.8
2022-09-09T02:02:21.143Z,89.7
2022-09-09T02:03:38.248Z,89.6
2022-09-09T02:04:55.353Z,89.3
2022-09-09T02:06:12.457Z,89.7
2022-09-09T02:07:29.561Z,89.7
2022-09-09T02:08:46.666Z,89.8
2022-09-09T02:10:03.770Z,89.7
2022-09-09T02:11:20.874Z,89.9
2022-09-09T02:12:36.994Z,90
2022-09-09T02:13:54.099Z,89.9
2022-09-09T02:15:11.203Z,89.9
2022-09-09T02:16:28.307Z,89.9
2022-09-09T02:17:45.411Z,90
2022-09-09T02:19:02.515Z,89.8
2022-09-09T02:20:19.619Z,89.5
2022-09-09T02:21:36.723Z,89.5
2022-09-09T02:22:53.829Z,89.4
2022-09-09T02:24:10.933Z,89.4
2022-09-09T02:25:28.037Z,89.4
2022-09-09T02:26:45.141Z,89.5
2022-09-09T02:28:02.245Z,89.4
2022-09-09T02:29:18.366Z,89.3
2022-09-09T02:30:35.470Z,89.3
2022-09-09T02:31:52.574Z,89.4
2022-09-09T02:33:09.678Z,89.5
2022-09-09T02:34:26.782Z,89.6
2022-09-09T02:35:43.886Z,89.5
2022-09-09T02:37:00.991Z,89.6
2022-09-09T02:38:18.095Z,89.6
2022-09-09T02:39:35.199Z,89.7
2022-09-09T02:40:52.303Z,89.8
2022-09-09T02:42:09.407Z,90
2022-09-09T02:43:26.512Z,90
2022-09-09T02:44:43.616Z,89.9
2022-09-09T02:45:59.736Z,89.9
2022-09-09T02:47:16.840Z,89.8
2022-09-09T02:48:33.944Z,89.8
2022-09-09T02:49:51.049Z,89.8
2022-09-09T02:51:08.153Z,90
2022-09-09T02:52:25.257Z,89.9
2022-09-09T02:53:42.361Z,90
2022-09-09T02:54:59.465Z,90
2022-09-09T02:56:16.569Z,89.7
2022-09-09T02:57:33.674Z,89.9
2022-09-09T02:58:50.778Z,89.8
2022-09-09T03:00:07.882Z,89.8
2022-09-09T03:01:24.987Z,89.7
2022-09-09T03:02:41.107Z,89.9
2022-09-09T03:03:58.211Z,89.7
2022-09-09T03:05:15.315Z,89.7
2022-09-09T03:06:32.419Z,90
2022-09-09T03:07:49.523Z,89.7
2022-09-09T03:09:06.628Z,89.8
2022-09-09T03:10:23.732Z,89.8
2022-09-09T03:11:40.836Z,90.2
2022-09-09T03:12:57.940Z,90
2022-09-09T03:14:15.045Z,90.1
2022-09-09T03:15:32.149Z,90.1
2022-09-09T03:16:49.253Z,90.3
2022-09-09T03:18:06.357Z,90.3
2022-09-09T03:19:22.478Z,90.4
2022-09-09T03:20:39.582Z,90.5
2022-09-09T03:21:56.686Z,90.5
2022-09-09T03:23:13.790Z,90.8
2022-09-09T03:24:30.895Z,91
2022-09-09T03:25:47.999Z,91.1
2022-09-09T03:27:05.103Z,91.1
2022-09-09T03:28:22.207Z,91.2
2022-09-09T03:29:39.311Z,91
2022-09-09T03:30:56.415Z,91.1
2022-09-09T03:32:13.519Z,91
2022-09-09T03:33:30.624Z,91
2022-09-09T03:34:47.728Z,90.9
2022-09-09T03:36:03.848Z,90.8
2022-09-09T03:37:20.953Z,90.8
2022-09-09T03:38:38.057Z,90.7
2022-09-09T03:39:55.161Z,90.8
2022-09-09T03:41:12.265Z,91
2022-09-09T03:42:29.369Z,91
2022-09-09T03:43:46.474Z,91
2022-09-09T03:45:03.576Z,90.9
2022-09-09T03:46:20.681Z,91
2022-09-09T03:47:37.785Z,91
2022-09-09T03:48:54.889Z,91.2
2022-09-09T03:50:11.993Z,91.2
2022-09-09T03:51:29.098Z,91.3
2022-09-09T03:52:45.218Z,91.2
2022-09-09T03:54:02.322Z,90.8
2022-09-09T03:55:19.426Z,90.6
2022-09-09T03:56:36.531Z,90.6
2022-09-09T03:57:53.635Z,90.6
2022-09-09T03:59:10.739Z,90.7
2022-09-09T04:00:27.843Z,90.9
2022-09-09T04:01:44.947Z,91
2022-09-09T04:03:02.051Z,91
2022-09-09T04:04:19.155Z,91.1
2022-09-09T04:05:36.260Z,91.2
2022-09-09T04:06:53.364Z,91.3
2022-09-09T04:08:10.468Z,91.4
2022-09-09T04:09:26.589Z,91.4
2022-09-09T04:10:43.693Z,91.2
2022-09-09T04:12:00.797Z,91
2022-09-09T04:13:17.901Z,91
2022-09-09T04:14:35.005Z,91
2022-09-09T04:15:52.109Z,91.1
2022-09-09T04:17:09.213Z,91.2
2022-09-09T04:18:26.318Z,91.2
2022-09-09T04:19:43.422Z,91.1
2022-09-09T04:21:00.526Z,91.1
2022-09-09T04:22:17.630Z,90.9
2022-09-09T04:23:34.734Z,90.9
2022-09-09T04:24:51.839Z,90.7
2022-09-09T04:26:07.959Z,90.8
2022-09-09T04:27:25.063Z,90.7
2022-09-09T04:28:42.168Z,90.8
2022-09-09T04:29:59.272Z,90.7
2022-09-09T04:31:16.376Z,90.5
2022-09-09T04:32:33.480Z,90.4
2022-09-09T04:33:50.585Z,90.3
2022-09-09T04:35:07.689Z,90.2
2022-09-09T04:36:24.793Z,90.2
2022-09-09T04:37:41.897Z,90.3
2022-09-09T04:38:59.002Z,90.3
2022-09-09T04:40:16.106Z,90.3
2022-09-09T04:41:33.210Z,90.3
2022-09-09T04:42:49.331Z,90.3
2022-09-09T04:44:06.435Z,90.2
2022-09-09T04:45:23.539Z,90
2022-09-09T04:46:40.643Z,89.9
2022-09-09T04:47:57.747Z,89.8
2022-09-09T04:49:14.851Z,89.7
2022-09-09T04:50:31.955Z,89.6
2022-09-09T04:51:49.060Z,89.7
2022-09-09T04:53:06.164Z,89.8
2022-09-09T04:54:23.268Z,89.9
2022-09-09T04:55:40.372Z,89.9
2022-09-09T04:56:57.476Z,89.9
2022-09-09T04:58:14.580Z,89.9
2022-09-09T04:59:30.700Z,89.7
2022-09-09T05:00:47.805Z,89.6
2022-09-09T05:02:04.909Z,89.6
2022-09-09T05:03:22.013Z,89.5
2022-09-09T05:04:39.117Z,89.5
2022-09-09T05:05:56.221Z,89.4
2022-09-09T05:07:13.323Z,89.3
2022-09-09T05:08:30.427Z,89.4
2022-09-09T05:09:47.531Z,89.4
2022-09-09T05:11:04.635Z,89.4
2022-09-09T05:12:21.739Z,89.4
2022-09-09T05:13:38.844Z,89.3
2022-09-09T05:14:55.948Z,89.4
2022-09-09T05:16:12.068Z,89.4
2022-09-09T05:17:29.173Z,89.4
2022-09-09T05:18:46.277Z,89.4
2022-09-09T05:20:03.381Z,89.4
2022-09-09T05:21:20.485Z,89.4
2022-09-09T05:22:37.589Z,89.2
2022-09-09T05:23:54.693Z,89.1
2022-09-09T05:25:11.796Z,89.1
2022-09-09T05:26:28.900Z,89.1
2022-09-09T05:27:46.004Z,89.1
2022-09-09T05:29:03.108Z,89.3
2022-09-09T05:30:20.212Z,89.3
2022-09-09T05:31:37.317Z,89.3
2022-09-09T05:32:53.437Z,89.3
2022-09-09T05:34:10.541Z,89.3
2022-09-09T05:35:27.645Z,89.2
2022-09-09T05:36:44.750Z,89.4
2022-09-09T05:38:01.854Z,89.3
2022-09-09T05:39:18.958Z,89.3
2022-09-09T05:40:36.062Z,89.4
2022-09-09T05:41:53.166Z,89.3
2022-09-09T05:43:10.270Z,89.1
2022-09-09T05:44:27.374Z,88.9
2022-09-09T05:45:44.479Z,89
2022-09-09T05:47:01.583Z,89
2022-09-09T05:48:18.687Z,88.8
2022-09-09T05:49:34.808Z,88.8
2022-09-09T05:50:51.912Z,88.7
2022-09-09T05:52:09.017Z,88.6
2022-09-09T05:53:26.121Z,88.6
2022-09-09T05:54:43.225Z,88.7
2022-09-09T05:56:00.329Z,88.6
2022-09-09T05:57:17.434Z,88.6
2022-09-09T05:58:34.538Z,88.6
2022-09-09T05:59:51.643Z,88.3
2022-09-09T06:01:08.747Z,87.9
2022-09-09T06:02:25.851Z,87.7
2022-09-09T06:03:42.955Z,87.4
2022-09-09T06:05:00.059Z,87.7
2022-09-09T06:06:16.180Z,87.5
2022-09-09T06:07:33.284Z,87.5
2022-09-09T06:08:50.388Z,87.1
2022-09-09T06:10:07.493Z,87
2022-09-09T06:11:24.597Z,86.8
2022-09-09T06:12:41.702Z,86.3
2022-09-09T06:13:57.822Z,85.1
2022-09-09T06:15:14.927Z,84.3
2022-09-09T06:16:32.031Z,83.7
2022-09-09T06:17:49.135Z,82.7
2022-09-09T06:19:06.239Z,81.8
2022-09-09T06:20:23.343Z,81.8
2022-09-09T06:21:40.448Z,82
2022-09-09T06:22:57.552Z,81.8
2022-09-09T06:24:14.656Z,81.8
2022-09-09T06:25:31.760Z,82
2022-09-09T06:26:48.864Z,82.1
2022-09-09T06:28:05.968Z,81.9
2022-09-09T06:29:23.071Z,82.2
2022-09-09T06:30:39.191Z,81.8
2022-09-09T06:31:56.295Z,82
2022-09-09T06:33:13.400Z,81
2022-09-09T06:34:30.503Z,80
2022-09-09T06:35:47.607Z,79.5
2022-09-09T06:37:04.711Z,78.8
2022-09-09T06:38:21.814Z,78.5
2022-09-09T06:39:38.918Z,77.4
2022-09-09T06:40:56.022Z,77.4
2022-09-09T06:42:13.126Z,76.9
2022-09-09T06:43:30.230Z,77.2
2022-09-09T06:44:47.334Z,76.9
2022-09-09T06:46:04.438Z,77.1
2022-09-09T06:47:20.558Z,76.9
2022-09-09T06:48:37.662Z,77.5
2022-09-09T06:49:54.766Z,77.4
2022-09-09T06:51:11.870Z,77.6
2022-09-09T06:52:28.975Z,78.1
2022-09-09T06:53:46.079Z,77.5
2022-09-09T06:55:03.183Z,77.7
2022-09-09T06:56:20.287Z,78.3
2022-09-09T06:57:37.391Z,77.7
2022-09-09T06:58:54.495Z,77.9
2022-09-09T07:00:11.599Z,77.2
2022-09-09T07:01:28.703Z,78.1
2022-09-09T07:02:45.807Z,78
2022-09-09T07:04:01.927Z,77.3
2022-09-09T07:05:19.032Z,76.9
2022-09-09T07:06:36.136Z,76.5
2022-09-09T07:07:53.240Z,76.8
2022-09-09T07:09:10.344Z,75.6
2022-09-09T07:10:27.448Z,75.3
2022-09-09T07:11:44.553Z,74.2
2022-09-09T07:13:01.657Z,73.7
2022-09-09T07:14:18.761Z,74.2
2022-09-09T07:15:35.865Z,74.2
2022-09-09T07:16:52.969Z,74
2022-09-09T07:18:10.071Z,73.3
2022-09-09T07:19:27.175Z,74.1
2022-09-09T07:20:43.296Z,73.9
2022-09-09T07:22:00.400Z,74.4
2022-09-09T07:23:17.000Z,74
2022-09-09T07:24:34.608Z,73.4
2022-09-09T07:25:51.712Z,72.8
2022-09-09T07:27:08.816Z,72.4
2022-09-09T07:28:25.000Z,70.5
2022-09-09T07:29:43.024Z,69.4
2022-09-09T07:31:00.128Z,69.7
2022-09-09T07:32:17.232Z,69.4
2022-09-09T07:33:34.336Z,69.4
2022-09-09T07:34:51.440Z,69
2022-09-09T07:36:08.544Z,67.6
2022-09-09T07:37:24.664Z,67.5
2022-09-09T07:38:41.768Z,67.8
2022-09-09T07:39:58.872Z,68
2022-09-09T07:41:15.976Z,68.2
2022-09-09T07:42:33.080Z,67.8
2022-09-09T07:43:50.184Z,67.7
2022-09-09T07:45:07.288Z,66.8
2022-09-09T07:46:24.392Z,66.7
2022-09-09T07:47:41.496Z,66.1
2022-09-09T07:48:58.600Z,65.7
2022-09-09T07:50:15.704Z,65.1
2022-09-09T07:51:32.808Z,64.9
2022-09-09T07:52:49.913Z,63.4
2022-09-09T07:54:06.033Z,62.4
2022-09-09T07:55:23.137Z,62.2
2022-09-09T07:56:40.241Z,61
2022-09-09T07:57:57.344Z,60.1
2022-09-09T07:59:14.448Z,57.7
2022-09-09T08:00:31.552Z,57.7
2022-09-09T08:01:48.657Z,57.1
2022-09-09T08:03:05.761Z,58
2022-09-09T08:04:22.865Z,58.2
2022-09-09T08:05:39.970Z,58.8
2022-09-09T08:06:57.074Z,58.6
2022-09-09T08:08:14.178Z,58.9
2022-09-09T08:09:31.282Z,58.7
2022-09-09T08:10:47.402Z,59.2
2022-09-09T08:12:04.506Z,59.6
2022-09-09T08:13:21.611Z,59.7
2022-09-09T08:14:38.715Z,58.4
2022-09-09T08:15:55.819Z,57.2
2022-09-09T08:17:12.923Z,56.7
2022-09-09T08:18:30.027Z,57.6
2022-09-09T08:19:47.131Z,56.4
2022-09-09T08:21:04.235Z,57.2
2022-09-09T08:22:21.339Z,56.6
2022-09-09T08:23:38.444Z,56.7
2022-09-09T08:24:55.548Z,57.7
2022-09-09T08:26:12.652Z,57.2
2022-09-09T08:27:28.772Z,56.7
2022-09-09T08:28:45.876Z,57.3
2022-09-09T08:30:02.980Z,57.7
2022-09-09T08:31:20.084Z,57.9
2022-09-09T08:32:37.189Z,57.5
2022-09-09T08:33:54.293Z,57.1
2022-09-09T08:35:11.397Z,57.5
2022-09-09T08:36:28.501Z,57.4
2022-09-09T08:37:45.606Z,58.7
2022-09-09T08:39:02.710Z,58.3
2022-09-09T08:40:19.814Z,59.3
2022-09-09T08:41:36.918Z,59.8
2022-09-09T08:42:54.023Z,59.7
2022-09-09T08:44:10.143Z,58.8
2022-09-09T08:45:27.247Z,58.9
2022-09-09T08:46:44.352Z,58
2022-09-09T08:48:01.456Z,57.7
2022-09-09T08:49:18.560Z,57.6
2022-09-09T08:50:35.664Z,58.3
2022-09-09T08:51:52.768Z,58.4
2022-09-09T08:53:09.872Z,57.5
2022-09-09T08:54:26.976Z,58.2
2022-09-09T08:55:44.080Z,57.8
2022-09-09T08:57:01.185Z,58.8
2022-09-09T08:58:18.289Z,58.6
2022-09-09T08:59:35.393Z,58.5
2022-09-09T09:00:51.514Z,58.3
2022-09-09T09:02:08.618Z,58.8
2022-09-09T09:03:25.722Z,59.3
2022-09-09T09:04:42.826Z,59.1
2022-09-09T09:05:59.930Z,59.8
2022-09-09T09:07:17.034Z,59.9
2022-09-09T09:08:34.139Z,60.1
2022-09-09T09:09:51.243Z,60.9
2022-09-09T09:11:08.347Z,60.7
2022-09-09T09:12:25.451Z,61
2022-09-09T09:13:42.554Z,60.6
2022-09-09T09:14:59.658Z,61.2
2022-09-09T09:16:16.762Z,60.8
2022-09-09T09:17:32.882Z,60.2
2022-09-09T09:18:49.986Z,60.6
2022-09-09T09:20:07.090Z,59.9
2022-09-09T09:21:24.194Z,59.3
2022-09-09T09:22:41.298Z,59.2
2022-09-09T09:23:58.402Z,59
2022-09-09T09:25:15.506Z,57.8
2022-09-09T09:26:32.610Z,57.2
2022-09-09T09:27:49.714Z,56.3
2022-09-09T09:29:06.818Z,56.5
2022-09-09T09:30:23.923Z,56.4
2022-09-09T09:31:41.027Z,57.4
2022-09-09T09:32:58.131Z,57.6
2022-09-09T09:34:14.252Z,56.8
2022-09-09T09:35:31.356Z,57
2022-09-09T09:36:48.460Z,57.4
2022-09-09T09:38:05.564Z,57
2022-09-09T09:39:22.668Z,56.5
2022-09-09T09:40:39.772Z,55.9
2022-09-09T09:41:56.877Z,55.5
2022-09-09T09:43:13.981Z,55.5
2022-09-09T09:44:31.085Z,55.2
2022-09-09T09:45:48.189Z,54.9
2022-09-09T09:47:05.294Z,54.7
2022-09-09T09:48:22.398Z,54.9
2022-09-09T09:49:39.502Z,54.2
2022-09-09T09:50:55.622Z,54.6
2022-09-09T09:52:12.726Z,54.6
2022-09-09T09:53:29.831Z,53.3
2022-09-09T09:54:46.935Z,53.9
2022-09-09T09:56:04.039Z,53.9
2022-09-09T09:57:21.143Z,53.9
2022-09-09T09:58:38.247Z,54
2022-09-09T09:59:55.351Z,54.2
2022-09-09T10:01:12.456Z,54.4
2022-09-09T10:02:29.560Z,54.3
2022-09-09T10:03:46.664Z,54.3
2022-09-09T10:05:03.768Z,54.1
2022-09-09T10:06:20.873Z,54.7
2022-09-09T10:07:36.993Z,54.2
2022-09-09T10:08:54.097Z,54.1
2022-09-09T10:10:11.201Z,54.3
2022-09-09T10:11:28.305Z,54.1
2022-09-09T10:12:45.410Z,53.3
2022-09-09T10:14:02.514Z,53.2
2022-09-09T10:15:19.618Z,53.8
2022-09-09T10:16:36.723Z,53.7
2022-09-09T10:17:53.827Z,53.5
2022-09-09T10:19:10.931Z,53.7
2022-09-09T10:20:28.035Z,53.7
2022-09-09T10:21:45.139Z,53.8
2022-09-09T10:23:02.243Z,53.5
2022-09-09T10:24:18.364Z,53.4
2022-09-09T10:25:35.468Z,53
2022-09-09T10:26:52.572Z,52.6
2022-09-09T10:28:09.677Z,52.8
2022-09-09T10:29:26.781Z,52.7
2022-09-09T10:30:43.885Z,52.6
2022-09-09T10:32:00.005Z,52.1
2022-09-09T10:33:17.109Z,52.2
2022-09-09T10:34:34.213Z,52.1
2022-09-09T10:35:51.318Z,51.8
2022-09-09T10:37:08.422Z,51.4
2022-09-09T10:38:25.526Z,51.5
2022-09-09T10:39:42.630Z,51.8
2022-09-09T10:40:59.735Z,51.5
2022-09-09T10:42:16.839Z,50.8
2022-09-09T10:43:33.943Z,51.3
2022-09-09T10:44:51.047Z,50.8
2022-09-09T10:46:08.151Z,51.6
2022-09-09T10:47:25.255Z,51.2
2022-09-09T10:48:41.376Z,51.3
2022-09-09T10:49:58.480Z,51.5
2022-09-09T10:51:15.584Z,51.8
2022-09-09T10:52:32.689Z,51.2
2022-09-09T10:53:49.793Z,51.5
2022-09-09T10:55:06.897Z,51.2
2022-09-09T10:56:24.001Z,50.8
2022-09-09T10:57:41.105Z,51
2022-09-09T10:58:58.209Z,50.7
2022-09-09T11:00:15.314Z,50.8
2022-09-09T11:01:32.418Z,50.8
2022-09-09T11:02:49.522Z,51
2022-09-09T11:04:06.626Z,51
2022-09-09T11:05:22.746Z,50.1
2022-09-09T11:06:39.850Z,50
2022-09-09T11:07:56.954Z,50.5
2022-09-09T11:09:14.058Z,50.5
2022-09-09T11:10:31.163Z,50.8
2022-09-09T11:11:48.267Z,51
2022-09-09T11:13:05.371Z,51
2022-09-09T11:14:22.476Z,50.8
2022-09-09T11:15:39.581Z,50.8
2022-09-09T11:16:56.685Z,50.7
2022-09-09T11:18:13.789Z,50.6
2022-09-09T11:19:30.893Z,50.9
2022-09-09T11:20:47.997Z,50.9
2022-09-09T11:22:04.117Z,51
2022-09-09T11:23:21.222Z,50.2
2022-09-09T11:24:38.326Z,50.2
2022-09-09T11:25:55.430Z,50.3
2022-09-09T11:27:12.534Z,51.2
2022-09-09T11:28:29.638Z,50.5
2022-09-09T11:29:46.742Z,50.6
2022-09-09T11:31:03.846Z,49.7
2022-09-09T11:32:20.951Z,49.8
2022-09-09T11:33:38.055Z,49.6
2022-09-09T11:34:55.159Z,50.3
2022-09-09T11:36:12.263Z,50.5
2022-09-09T11:37:29.367Z,51
2022-09-09T11:38:45.487Z,51.1
2022-09-09T11:40:02.591Z,50.7
2022-09-09T11:41:19.695Z,51.1
2022-09-09T11:42:36.799Z,51.6
2022-09-09T11:43:53.903Z,51.3
2022-09-09T11:45:11.008Z,51.6
2022-09-09T11:46:28.112Z,51.5
2022-09-09T11:47:45.216Z,51.3
2022-09-09T11:49:02.320Z,51.5
2022-09-09T11:50:19.424Z,51.3
2022-09-09T11:51:36.528Z,51.5
2022-09-09T11:52:53.632Z,52.2
2022-09-09T11:54:10.735Z,52.5
2022-09-09T11:55:26.855Z,52.2
2022-09-09T11:56:43.960Z,52.3
2022-09-09T11:58:01.063Z,52
2022-09-09T11:59:18.167Z,52.4
2022-09-09T12:00:35.271Z,52.1
2022-09-09T12:01:52.375Z,51.9
2022-09-09T12:03:09.479Z,51.5
2022-09-09T12:04:26.584Z,51.9
2022-09-09T12:05:43.688Z,51.7
2022-09-09T12:07:00.792Z,51.6
2022-09-09T12:08:17.896Z,52
2022-09-09T12:09:35.000Z,51.7
2022-09-09T12:10:52.104Z,51.9
2022-09-09T12:12:08.224Z,51.1
2022-09-09T12:13:25.328Z,51.7
2022-09-09T12:14:42.432Z,51.2
2022-09-09T12:15:59.536Z,51.4
2022-09-09T12:17:16.640Z,51.3
2022-09-09T12:18:33.744Z,51.2
2022-09-09T12:19:50.848Z,51.7
2022-09-09T12:21:07.952Z,51.5
2022-09-09T12:22:25.056Z,51.4
2022-09-09T12:23:42.160Z,51.7
2022-09-09T12:24:59.263Z,51.1
2022-09-09T12:26:16.367Z,50.6
2022-09-09T12:27:33.471Z,50
2022-09-09T12:28:49.591Z,49.8
2022-09-09T12:30:06.696Z,49.7
2022-09-09T12:31:23.799Z,50
2022-09-09T12:32:40.903Z,49.9
2022-09-09T12:33:58.007Z,50
2022-09-09T12:35:15.111Z,49.4
2022-09-09T12:36:32.215Z,49.5
2022-09-09T12:37:49.319Z,50
2022-09-09T12:39:06.423Z,50
2022-09-09T12:40:23.527Z,50.2
2022-09-09T12:41:40.631Z,50.4
2022-09-09T12:42:57.735Z,49.9
2022-09-09T12:44:14.839Z,49.9
2022-09-09T12:45:30.960Z,50.2
2022-09-09T12:46:48.064Z,50.1
2022-09-09T12:48:05.168Z,50
2022-09-09T12:49:22.272Z,49.9
2022-09-09T12:50:39.376Z,49.6
2022-09-09T12:51:56.480Z,50.3
2022-09-09T12:53:13.584Z,49.6
2022-09-09T12:54:30.688Z,49.9
2022-09-09T12:55:47.792Z,50
2022-09-09T12:57:04.896Z,50.2
2022-09-09T12:58:22.000Z,50.4
2022-09-09T12:59:39.104Z,50.3
2022-09-09T13:00:56.208Z,51.3
2022-09-09T13:02:12.328Z,51.7
2022-09-09T13:03:29.433Z,52.3
2022-09-09T13:04:46.537Z,51.8
2022-09-09T13:06:03.641Z,52.1
2022-09-09T13:07:20.744Z,51.8
2022-09-09T13:08:37.848Z,51.4
2022-09-09T13:09:54.952Z,52
2022-09-09T13:11:12.056Z,52.7
2022-09-09T13:12:29.160Z,52
2022-09-09T13:13:46.265Z,52.4
2022-09-09T13:15:03.369Z,52.1
2022-09-09T13:16:20.473Z,51.9
2022-09-09T13:17:37.577Z,51.9
2022-09-09T13:18:53.697Z,50.8
2022-09-09T13:20:10.801Z,51.5
2022-09-09T13:21:27.904Z,51.4
2022-09-09T13:22:45.008Z,50
2022-09-09T13:24:02.112Z,49.4
2022-09-09T13:25:19.216Z,50
2022-09-09T13:26:36.320Z,49.6
2022-09-09T13:27:53.424Z,49.5
2022-09-09T13:29:10.528Z,49.9
2022-09-09T13:30:27.632Z,49.9
2022-09-09T13:31:44.736Z,50.6
2022-09-09T13:33:01.840Z,50.4
2022-09-09T13:34:18.944Z,50.8
2022-09-09T13:35:35.064Z,50.7
2022-09-09T13:36:52.168Z,50.7
2022-09-09T13:38:09.272Z,50.9
2022-09-09T13:39:26.376Z,51.2
2022-09-09T13:40:43.479Z,51.2
2022-09-09T13:42:00.583Z,51
2022-09-09T13:43:17.687Z,51.3
2022-09-09T13:44:34.791Z,51.2
2022-09-09T13:45:51.895Z,51.2
2022-09-09T13:47:08.999Z,51.4
2022-09-09T13:48:26.103Z,51.2
2022-09-09T13:49:43.207Z,51
2022-09-09T13:51:00.311Z,51.1
2022-09-09T13:52:16.431Z,50.8
2022-09-09T13:53:33.536Z,51.3
2022-09-09T13:54:50.640Z,51.7
2022-09-09T13:56:07.744Z,51.4
2022-09-09T13:57:24.848Z,51.3
2022-09-09T13:58:41.952Z,51.2
2022-09-09T13:59:59.056Z,50.8
2022-09-09T14:01:16.160Z,50.4
2022-09-09T14:02:33.264Z,50.5
2022-09-09T14:03:50.368Z,50.4
2022-09-09T14:05:07.472Z,50.5
2022-09-09T14:06:24.576Z,50.6
2022-09-09T14:07:41.680Z,50.6
2022-09-09T14:08:57.800Z,50.9
2022-09-09T14:10:14.905Z,51
2022-09-09T14:11:32.009Z,51.4
2022-09-09T14:12:49.113Z,51.2
2022-09-09T14:14:06.216Z,51.3
2022-09-09T14:15:23.320Z,51
2022-09-09T14:16:40.425Z,51.2
2022-09-09T14:17:57.529Z,51.2
2022-09-09T14:19:14.633Z,51.3
2022-09-09T14:20:31.738Z,51.6
2022-09-09T14:21:48.842Z,51.7
2022-09-09T14:23:05.945Z,52.3
2022-09-09T14:24:23.049Z,52.2
2022-09-09T14:25:39.169Z,52.5
2022-09-09T14:26:56.273Z,52.4
2022-09-09T14:28:13.377Z,52.5
2022-09-09T14:29:30.480Z,52.4
2022-09-09T14:30:47.585Z,52.9
2022-09-09T14:32:04.689Z,53.2
2022-09-09T14:33:21.793Z,52.9
2022-09-09T14:34:38.897Z,53.1
2022-09-09T14:35:56.001Z,53.2
2022-09-09T14:37:13.104Z,53.2
2022-09-09T14:38:30.208Z,53.3
2022-09-09T14:39:47.313Z,53.5
2022-09-09T14:41:04.417Z,53.6
2022-09-09T14:42:20.537Z,53.8
2022-09-09T14:43:37.641Z,54.4
2022-09-09T14:44:54.745Z,53.5
2022-09-09T14:46:11.849Z,54
2022-09-09T14:47:28.952Z,53.8
2022-09-09T14:48:46.056Z,53.8
2022-09-09T14:50:02.176Z,53.7
2022-09-09T14:51:19.280Z,53.9
2022-09-09T14:52:36.384Z,53.7
2022-09-09T14:53:53.488Z,53.6
2022-09-09T14:55:10.592Z,53.7
2022-09-09T14:56:27.696Z,53.9
2022-09-09T14:57:44.799Z,54
2022-09-09T14:59:01.903Z,53.6
2022-09-09T15:00:19.007Z,54
2022-09-09T15:01:36.111Z,54.5
2022-09-09T15:02:53.215Z,54.9
2022-09-09T15:04:10.319Z,55.3
2022-09-09T15:05:27.424Z,54.9
2022-09-09T15:06:43.544Z,55.4
2022-09-09T15:08:00.648Z,55.4
2022-09-09T15:09:17.752Z,55.6
2022-09-09T15:10:34.856Z,55.7
2022-09-09T15:11:51.961Z,55.9
2022-09-09T15:13:09.065Z,56.3
2022-09-09T15:14:26.169Z,56.6
2022-09-09T15:15:43.273Z,57.2
2022-09-09T15:17:00.378Z,57.5
2022-09-09T15:18:17.482Z,57.7
2022-09-09T15:19:34.586Z,58
2022-09-09T15:20:51.690Z,58.5
2022-09-09T15:22:08.794Z,58.9
2022-09-09T15:23:24.915Z,59.1
2022-09-09T15:24:42.019Z,60.1
2022-09-09T15:25:59.123Z,60.4
2022-09-09T15:27:16.227Z,60.8
2022-09-09T15:28:33.332Z,61.1
2022-09-09T15:29:50.436Z,61.1
2022-09-09T15:31:07.540Z,61.2
2022-09-09T15:32:24.644Z,61.7
2022-09-09T15:33:41.748Z,61.4
2022-09-09T15:34:58.852Z,61.3
2022-09-09T15:36:15.956Z,61.6
2022-09-09T15:37:33.060Z,61.6
2022-09-09T15:38:50.165Z,61.2
2022-09-09T15:40:06.285Z,61.1
2022-09-09T15:41:23.388Z,61.3
2022-09-09T15:42:40.492Z,61.2
2022-09-09T15:43:57.596Z,61.6
2022-09-09T15:45:14.700Z,61.3
2022-09-09T15:46:31.804Z,61.7
2022-09-09T15:47:48.908Z,62.2
2022-09-09T15:49:06.011Z,62.3
2022-09-09T15:50:23.117Z,62.2
2022-09-09T15:51:40.220Z,62.3
2022-09-09T15:52:57.324Z,62.2
2022-09-09T15:54:14.428Z,62.4
2022-09-09T15:55:31.532Z,62.5
2022-09-09T15:56:47.652Z,63
2022-09-09T15:58:04.756Z,63.3
2022-09-09T15:59:21.861Z,63.6
2022-09-09T16:00:38.965Z,64
2022-09-09T16:01:56.069Z,64.4
2022-09-09T16:03:13.173Z,64.9
2022-09-09T16:04:30.277Z,64.9
2022-09-09T16:05:47.381Z,65.1
2022-09-09T16:07:04.484Z,65.8
2022-09-09T16:08:21.589Z,66.3
2022-09-09T16:09:38.693Z,66.3
2022-09-09T16:10:55.797Z,66.6
2022-09-09T16:12:12.902Z,67
2022-09-09T16:13:29.022Z,67.2
2022-09-09T16:14:46.126Z,67.6
2022-09-09T16:16:03.230Z,68
2022-09-09T16:17:20.334Z,68.5
2022-09-09T16:18:37.438Z,68.7
2022-09-09T16:19:54.542Z,68.5
2022-09-09T16:21:11.646Z,69
2022-09-09T16:22:28.750Z,69.2
2022-09-09T16:23:45.854Z,69.1
2022-09-09T16:25:02.958Z,69.4
2022-09-09T16:26:20.062Z,70
2022-09-09T16:27:37.167Z,70.1
2022-09-09T16:28:54.271Z,70.1
2022-09-09T16:30:10.391Z,70.3
2022-09-09T16:31:27.495Z,70.7
2022-09-09T16:32:44.599Z,70.9
2022-09-09T16:34:01.704Z,71.5
2022-09-09T16:35:18.808Z,71.6
2022-09-09T16:36:35.912Z,71.8
2022-09-09T16:37:53.016Z,71.8
2022-09-09T16:39:10.120Z,72.3
2022-09-09T16:40:27.224Z,72.3
2022-09-09T16:41:44.328Z,73
2022-09-09T16:43:01.433Z,73.8
2022-09-09T16:44:18.537Z,72.4
2022-09-09T16:45:35.641Z,70.7
2022-09-09T16:46:51.761Z,69.7
2022-09-09T16:48:08.866Z,70.6
2022-09-09T16:49:25.970Z,70.9
2022-09-09T16:50:43.072Z,70.6
2022-09-09T16:52:00.176Z,70.8
2022-09-09T16:53:17.280Z,71.2
2022-09-09T16:54:34.384Z,72.4
2022-09-09T16:55:51.488Z,72.5
2022-09-09T16:57:08.592Z,74.5
2022-09-09T16:58:25.696Z,75
2022-09-09T16:59:42.800Z,75.2
2022-09-09T17:00:59.903Z,74.9
2022-09-09T17:02:17.007Z,74.2
2022-09-09T17:03:33.127Z,75.7
2022-09-09T17:04:50.231Z,76
2022-09-09T17:06:07.335Z,76.4
2022-09-09T17:07:24.439Z,75.4
2022-09-09T17:08:41.543Z,75.4
2022-09-09T17:09:58.647Z,76.5
2022-09-09T17:11:15.752Z,77
2022-09-09T17:12:32.855Z,77.4
2022-09-09T17:13:49.960Z,77.5